createdAt,value
2018-08-17T00:02:25.868Z,25.50
2018-08-17T00:04:53.360Z,25.50
2018-08-17T00:07:20.852Z,25.40
2018-08-17T00:09:48.328Z,25.40
2018-08-17T00:12:15.954Z,25.40
2018-08-17T00:14:43.431Z,25.30
2018-08-17T00:17:10.920Z,25.30
2018-08-17T00:19:38.318Z,25.30
2018-08-17T00:22:05.890Z,25.30
2018-08-17T00:24:33.322Z,25.30
2018-08-17T00:27:00.755Z,26.60
2018-08-17T00:29:28.273Z,25.20
2018-08-17T00:31:55.748Z,25.20
2018-08-17T00:34:23.177Z,25.00
2018-08-17T00:36:50.752Z,25.10
2018-08-17T00:39:18.222Z,25.10
2018-08-17T00:41:45.686Z,25.10
2018-08-17T00:44:13.148Z,25.00
2018-08-17T00:46:40.618Z,25.00
2018-08-17T00:49:08.151Z,25.00
2018-08-17T00:51:35.670Z,24.90
2018-08-17T00:54:03.184Z,24.90
2018-08-17T00:56:30.626Z,24.90
2018-08-17T00:58:58.117Z,24.80
2018-08-17T01:01:25.636Z,24.80
2018-08-17T01:03:53.109Z,24.80
2018-08-17T01:06:20.769Z,24.80
2018-08-17T01:08:48.321Z,24.70
2018-08-17T01:11:15.814Z,24.70
2018-08-17T01:13:43.294Z,24.70
2018-08-17T01:16:10.873Z,24.60
2018-08-17T01:18:38.361Z,24.60
2018-08-17T01:21:05.817Z,24.20
2018-08-17T01:23:33.234Z,24.50
2018-08-17T01:26:00.679Z,24.50
2018-08-17T01:28:28.115Z,24.40
2018-08-17T01:30:55.581Z,24.50
2018-08-17T01:33:22.997Z,24.40
2018-08-17T01:35:50.435Z,24.40
2018-08-17T01:38:17.902Z,24.40
2018-08-17T01:40:45.363Z,24.40
2018-08-17T01:43:12.861Z,24.40
2018-08-17T01:45:40.323Z,24.30
2018-08-17T01:48:07.797Z,24.30
2018-08-17T01:50:35.297Z,24.30
2018-08-17T01:53:02.783Z,24.30
2018-08-17T01:55:30.233Z,24.30
2018-08-17T01:57:57.683Z,24.20
2018-08-17T02:00:25.893Z,24.20
2018-08-17T02:02:53.369Z,24.20
2018-08-17T02:05:20.832Z,24.20
2018-08-17T02:07:48.375Z,24.20
2018-08-17T02:10:15.838Z,24.20
2018-08-17T02:12:43.333Z,24.10
2018-08-17T02:15:10.788Z,24.10
2018-08-17T02:17:38.293Z,24.10
2018-08-17T02:20:05.806Z,24.10
2018-08-17T02:22:33.249Z,24.10
2018-08-17T02:25:00.728Z,24.00
2018-08-17T02:27:28.238Z,24.00
2018-08-17T02:29:55.748Z,24.00
2018-08-17T02:32:23.208Z,23.70
2018-08-17T02:34:50.659Z,23.90
2018-08-17T02:37:18.214Z,23.80
2018-08-17T02:39:45.664Z,23.90
2018-08-17T02:42:13.130Z,23.80
2018-08-17T02:44:40.590Z,23.80
2018-08-17T02:47:08.056Z,23.80
2018-08-17T02:49:35.488Z,23.80
2018-08-17T02:52:03.031Z,23.70
2018-08-17T02:54:30.534Z,23.70
2018-08-17T02:56:57.988Z,23.70
2018-08-17T02:59:25.610Z,23.70
2018-08-17T03:01:52.937Z,23.70
2018-08-17T03:04:20.467Z,23.60
2018-08-17T03:06:47.977Z,23.60
2018-08-17T03:09:15.481Z,23.60
2018-08-17T03:11:42.944Z,23.60
2018-08-17T03:14:10.396Z,23.50
2018-08-17T03:16:37.856Z,23.50
2018-08-17T03:19:05.386Z,23.50
2018-08-17T03:21:32.946Z,23.50
2018-08-17T03:24:00.508Z,23.50
2018-08-17T03:26:27.983Z,23.40
2018-08-17T03:28:55.442Z,23.40
2018-08-17T03:31:22.920Z,23.40
2018-08-17T03:33:50.361Z,23.40
2018-08-17T03:36:17.837Z,23.30
2018-08-17T03:38:45.266Z,23.30
2018-08-17T03:41:12.746Z,23.30
2018-08-17T03:43:40.167Z,23.20
2018-08-17T03:46:07.674Z,23.20
2018-08-17T03:48:35.137Z,23.20
2018-08-17T03:51:02.581Z,23.20
2018-08-17T03:53:30.137Z,23.20
2018-08-17T03:55:57.641Z,23.20
2018-08-17T03:58:25.283Z,23.10
2018-08-17T04:00:52.907Z,23.10
2018-08-17T04:03:20.361Z,23.10
2018-08-17T04:05:47.795Z,23.10
2018-08-17T04:08:15.297Z,23.10
2018-08-17T04:10:42.756Z,23.10
2018-08-17T04:13:10.349Z,23.10
2018-08-17T04:15:37.923Z,23.00
2018-08-17T04:18:06.136Z,23.00
2018-08-17T04:20:33.617Z,22.90
2018-08-17T04:23:01.062Z,23.00
2018-08-17T04:25:28.533Z,23.00
2018-08-17T04:27:55.984Z,23.00
2018-08-17T04:30:23.452Z,23.00
2018-08-17T04:32:50.841Z,22.90
2018-08-17T04:35:18.358Z,22.90
2018-08-17T04:37:45.847Z,22.90
2018-08-17T04:40:13.261Z,22.90
2018-08-17T04:42:40.681Z,22.90
2018-08-17T04:45:08.886Z,22.80
2018-08-17T04:47:36.461Z,22.80
2018-08-17T04:50:05.007Z,22.80
2018-08-17T04:52:32.508Z,22.80
2018-08-17T04:54:59.950Z,22.80
2018-08-17T04:57:27.407Z,22.80
2018-08-17T04:59:54.875Z,22.80
2018-08-17T05:02:22.348Z,22.80
2018-08-17T05:04:49.805Z,22.80
2018-08-17T05:07:17.323Z,22.80
2018-08-17T05:09:44.743Z,22.80
2018-08-17T05:12:12.250Z,22.80
2018-08-17T05:14:39.726Z,22.80
2018-08-17T05:17:07.245Z,22.90
2018-08-17T05:19:34.741Z,22.90
2018-08-17T05:22:02.230Z,22.90
2018-08-17T05:24:29.688Z,22.90
2018-08-17T05:26:57.139Z,22.90
2018-08-17T05:29:24.618Z,22.90
2018-08-17T05:31:52.133Z,23.00
2018-08-17T05:34:19.593Z,23.00
2018-08-17T05:36:47.075Z,23.00
2018-08-17T05:39:14.633Z,23.10
2018-08-17T05:41:42.057Z,23.00
2018-08-17T05:44:09.507Z,23.10
2018-08-17T05:46:36.991Z,23.10
2018-08-17T05:49:04.670Z,23.20
2018-08-17T05:51:32.135Z,23.20
2018-08-17T05:53:59.596Z,23.10
2018-08-17T05:56:27.208Z,23.30
2018-08-17T05:58:54.602Z,23.30
2018-08-17T06:01:22.177Z,23.30
2018-08-17T06:03:49.695Z,23.40
2018-08-17T06:06:17.159Z,23.50
2018-08-17T06:08:44.725Z,23.50
2018-08-17T06:11:12.260Z,23.50
2018-08-17T06:13:39.681Z,23.50
2018-08-17T06:16:07.949Z,23.60
2018-08-17T06:18:35.519Z,23.60
2018-08-17T06:21:03.040Z,23.70
2018-08-17T06:23:30.507Z,23.70
2018-08-17T06:25:58.030Z,23.80
2018-08-17T06:28:25.576Z,23.60
2018-08-17T06:30:53.095Z,23.80
2018-08-17T06:33:20.899Z,23.90
2018-08-17T06:35:48.470Z,23.90
2018-08-17T06:38:15.974Z,23.90
2018-08-17T06:40:43.472Z,24.00
2018-08-17T06:43:10.962Z,24.10
2018-08-17T06:46:55.223Z,24.10
2018-08-17T06:49:22.671Z,24.10
2018-08-17T06:51:50.217Z,24.20
2018-08-17T06:54:17.703Z,24.30
2018-08-17T06:56:45.197Z,24.30
2018-08-17T06:59:12.665Z,24.40
2018-08-17T07:01:40.167Z,24.40
2018-08-17T07:04:07.702Z,24.50
2018-08-17T07:06:35.158Z,24.50
2018-08-17T07:09:02.939Z,24.60
2018-08-17T07:11:30.338Z,24.70
2018-08-17T07:13:57.797Z,24.70
2018-08-17T07:16:25.263Z,24.80
2018-08-17T07:18:52.682Z,24.90
2018-08-17T07:21:20.171Z,25.00
2018-08-17T07:23:47.635Z,25.00
2018-08-17T07:26:15.050Z,25.10
2018-08-17T07:28:42.510Z,25.20
2018-08-17T07:31:10.001Z,25.30
2018-08-17T07:33:37.561Z,25.30
2018-08-17T07:36:05.056Z,25.40
2018-08-17T07:38:32.476Z,25.50
2018-08-17T07:40:59.951Z,25.60
2018-08-17T07:43:27.436Z,25.60
2018-08-17T07:45:54.904Z,25.70
2018-08-17T07:48:22.472Z,25.80
2018-08-17T07:50:49.837Z,25.90
2018-08-17T07:53:17.284Z,26.00
2018-08-17T07:55:44.753Z,26.10
2018-08-17T07:58:12.205Z,26.30
2018-08-17T08:00:39.741Z,26.40
2018-08-17T08:03:07.193Z,26.50
2018-08-17T08:05:34.629Z,26.60
2018-08-17T08:08:02.129Z,26.70
2018-08-17T08:10:29.605Z,26.80
2018-08-17T08:12:57.060Z,27.00
2018-08-17T08:15:24.603Z,27.10
2018-08-17T08:17:52.099Z,27.20
2018-08-17T08:20:32.889Z,27.30
2018-08-17T08:23:11.956Z,27.40
2018-08-17T08:25:40.145Z,27.50
2018-08-17T08:28:07.702Z,27.60
2018-08-17T08:30:35.171Z,27.80
2018-08-17T08:33:02.816Z,27.90
2018-08-17T08:35:30.247Z,28.00
2018-08-17T08:37:58.033Z,28.10
2018-08-17T08:40:25.533Z,28.20
2018-08-17T08:42:53.129Z,28.40
2018-08-17T08:45:20.703Z,28.50
2018-08-17T08:47:48.221Z,28.60
2018-08-17T08:50:15.858Z,28.70
2018-08-17T08:52:43.574Z,28.90
2018-08-17T08:55:11.042Z,29.10
2018-08-17T08:57:38.826Z,29.20
2018-08-17T09:00:07.292Z,29.40
2018-08-17T09:02:34.872Z,29.50
2018-08-17T09:05:02.546Z,29.50
2018-08-17T09:07:30.064Z,29.70
2018-08-17T09:09:57.574Z,29.90
2018-08-17T09:12:25.022Z,30.00
2018-08-17T09:14:52.503Z,29.90
2018-08-17T09:17:19.978Z,30.30
2018-08-17T09:19:47.463Z,30.40
2018-08-17T09:22:14.944Z,30.60
2018-08-17T09:24:42.436Z,30.80
2018-08-17T09:27:09.911Z,30.90
2018-08-17T09:29:37.946Z,31.10
2018-08-17T09:32:05.440Z,31.20
2018-08-17T09:34:32.930Z,31.40
2018-08-17T09:37:00.417Z,31.60
2018-08-17T09:39:27.866Z,31.80
2018-08-17T09:41:55.646Z,32.00
2018-08-17T09:44:23.261Z,32.20
2018-08-17T09:46:50.822Z,32.50
2018-08-17T09:49:18.386Z,32.70
2018-08-17T09:51:46.462Z,32.90
2018-08-17T09:54:13.889Z,33.20
2018-08-17T09:56:41.369Z,33.40
2018-08-17T09:59:08.836Z,33.70
2018-08-17T10:01:41.924Z,34.00
2018-08-17T10:04:14.902Z,34.20
2018-08-17T10:06:47.926Z,34.50
2018-08-17T10:09:21.092Z,34.50
2018-08-17T10:11:50.144Z,35.10
2018-08-17T10:14:17.906Z,35.30
2018-08-17T10:16:45.576Z,35.50
2018-08-17T10:19:13.098Z,35.80
2018-08-17T10:21:55.677Z,36.20
2018-08-17T10:24:23.379Z,36.40
2018-08-17T10:26:51.970Z,36.60
2018-08-17T10:29:28.282Z,36.90
2018-08-17T10:31:55.751Z,37.20
2018-08-17T10:34:23.203Z,37.50
2018-08-17T10:36:50.699Z,37.80
2018-08-17T10:39:18.939Z,38.10
2018-08-17T10:41:46.523Z,38.40
2018-08-17T10:44:14.039Z,38.60
2018-08-17T10:46:42.067Z,38.80
2018-08-17T10:49:10.208Z,38.90
2018-08-17T10:51:37.915Z,38.90
2018-08-17T10:54:05.537Z,38.90
2018-08-17T10:56:33.433Z,38.80
2018-08-17T10:59:00.915Z,38.60
2018-08-17T11:01:28.507Z,38.50
2018-08-17T11:03:56.042Z,38.20
2018-08-17T11:06:23.528Z,38.20
2018-08-17T11:08:51.066Z,37.80
2018-08-17T11:11:21.062Z,37.60
2018-08-17T11:13:49.456Z,37.30
2018-08-17T11:16:16.994Z,37.20
2018-08-17T11:18:44.599Z,37.00
2018-08-17T11:21:12.191Z,36.80
2018-08-17T11:23:39.611Z,36.70
2018-08-17T11:26:07.210Z,36.60
2018-08-17T11:28:34.703Z,36.50
2018-08-17T11:31:02.321Z,36.40
2018-08-17T11:33:30.236Z,36.20
2018-08-17T11:35:57.851Z,36.20
2018-08-17T11:38:26.953Z,36.20
2018-08-17T11:40:54.663Z,36.00
2018-08-17T11:43:22.108Z,35.80
2018-08-17T11:45:49.590Z,35.90
2018-08-17T11:48:24.197Z,35.80
2018-08-17T11:50:51.996Z,35.70
2018-08-17T11:53:19.475Z,34.20
2018-08-17T11:55:47.008Z,35.70
2018-08-17T11:58:14.523Z,35.70
2018-08-17T12:00:42.055Z,35.70
2018-08-17T12:03:09.647Z,35.70
2018-08-17T12:05:37.237Z,35.60
2018-08-17T12:08:04.981Z,35.20
2018-08-17T12:10:32.417Z,35.50
2018-08-17T12:13:05.448Z,35.40
2018-08-17T12:15:59.563Z,35.40
2018-08-17T12:18:27.130Z,35.30
2018-08-17T12:20:55.220Z,32.70
2018-08-17T12:23:23.060Z,35.20
2018-08-17T12:25:54.419Z,35.20
2018-08-17T12:28:22.116Z,35.20
2018-08-17T12:30:49.786Z,35.20
2018-08-17T12:33:17.224Z,35.20
2018-08-17T12:35:44.690Z,35.10
2018-08-17T12:38:13.930Z,35.20
2018-08-17T12:40:46.008Z,35.20
2018-08-17T12:43:15.190Z,35.20
2018-08-17T12:45:42.666Z,35.20
2018-08-17T12:48:10.692Z,35.20
2018-08-17T12:50:38.266Z,35.30
2018-08-17T12:53:05.756Z,35.40
2018-08-17T12:55:33.283Z,35.40
2018-08-17T12:58:00.832Z,35.40
2018-08-17T13:00:28.290Z,35.40
2018-08-17T13:02:55.941Z,35.40
2018-08-17T13:05:23.554Z,35.40
2018-08-17T13:07:51.110Z,35.40
2018-08-17T13:10:18.630Z,35.50
2018-08-17T13:12:53.048Z,35.50
2018-08-17T13:15:20.520Z,35.50
2018-08-17T13:17:48.121Z,35.60
2018-08-17T13:20:15.806Z,35.60
2018-08-17T13:22:43.382Z,35.60
2018-08-17T13:25:10.940Z,35.80
2018-08-17T13:27:38.854Z,35.50
2018-08-17T13:30:08.775Z,35.70
2018-08-17T13:32:36.327Z,35.30
2018-08-17T13:35:03.881Z,35.70
2018-08-17T13:37:31.481Z,35.80
2018-08-17T13:39:59.168Z,35.80
2018-08-17T13:42:27.086Z,34.50
2018-08-17T13:44:55.414Z,35.90
2018-08-17T13:47:23.851Z,36.10
2018-08-17T13:49:52.933Z,35.90
2018-08-17T13:52:20.571Z,35.90
2018-08-17T13:54:48.157Z,35.90
2018-08-17T13:57:15.771Z,35.80
2018-08-17T13:59:43.505Z,35.90
2018-08-17T14:02:13.289Z,35.10
2018-08-17T14:04:40.809Z,35.80
2018-08-17T14:07:08.327Z,37.20
2018-08-17T14:09:36.091Z,35.70
2018-08-17T14:12:03.587Z,35.70
2018-08-17T14:14:31.381Z,35.70
2018-08-17T14:16:58.937Z,35.60
2018-08-17T14:19:26.519Z,35.50
2018-08-17T14:21:54.205Z,35.60
2018-08-17T14:24:21.833Z,35.70
2018-08-17T14:26:49.485Z,35.60
2018-08-17T14:29:17.340Z,33.60
2018-08-17T14:31:44.895Z,35.60
2018-08-17T14:34:12.450Z,35.60
2018-08-17T14:36:39.967Z,35.60
2018-08-17T14:39:07.611Z,35.60
2018-08-17T14:41:45.271Z,35.50
2018-08-17T14:44:12.773Z,35.50
2018-08-17T14:46:40.255Z,35.60
2018-08-17T14:49:07.766Z,35.40
2018-08-17T14:51:36.147Z,35.50
2018-08-17T14:54:03.724Z,35.30
2018-08-17T14:56:31.300Z,35.40
2018-08-17T14:58:58.761Z,35.40
2018-08-17T15:01:26.263Z,35.50
2018-08-17T15:03:53.792Z,35.40
2018-08-17T15:06:22.239Z,35.30
2018-08-17T15:08:49.717Z,35.20
2018-08-17T15:11:17.457Z,35.40
2018-08-17T15:13:45.786Z,35.40
2018-08-17T15:16:13.504Z,35.30
2018-08-17T15:18:41.323Z,33.70
2018-08-17T15:21:09.787Z,33.90
2018-08-17T15:23:37.351Z,35.20
2018-08-17T15:26:05.227Z,35.10
2018-08-17T15:28:32.770Z,33.50
2018-08-17T15:31:00.459Z,32.20
2018-08-17T15:33:28.160Z,35.10
2018-08-17T15:35:55.658Z,35.00
2018-08-17T15:38:23.206Z,35.00
2018-08-17T15:40:50.787Z,35.20
2018-08-17T15:43:19.374Z,35.20
2018-08-17T15:45:48.617Z,35.20
2018-08-17T15:48:16.615Z,33.40
2018-08-17T15:50:44.710Z,35.30
2018-08-17T15:53:12.204Z,35.20
2018-08-17T15:55:39.706Z,35.50
2018-08-17T15:58:07.529Z,35.60
2018-08-17T16:00:35.118Z,35.70
2018-08-17T16:03:02.708Z,35.70
2018-08-17T16:05:30.252Z,35.80
2018-08-17T16:07:57.819Z,35.80
2018-08-17T16:10:25.348Z,35.80
2018-08-17T16:12:52.987Z,35.80
2018-08-17T16:15:20.507Z,35.70
2018-08-17T16:17:48.107Z,35.60
2018-08-17T16:20:15.637Z,35.60
2018-08-17T16:22:43.666Z,35.50
2018-08-17T16:25:12.148Z,36.00
2018-08-17T16:27:40.582Z,35.40
2018-08-17T16:30:10.129Z,35.30
2018-08-17T16:32:37.734Z,35.20
2018-08-17T16:35:05.541Z,35.00
2018-08-17T16:37:33.183Z,35.00
2018-08-17T16:40:00.597Z,34.10
2018-08-17T16:42:35.011Z,34.90
2018-08-17T16:45:03.445Z,31.60
2018-08-17T16:47:31.259Z,34.70
2018-08-17T16:49:58.746Z,34.60
2018-08-17T16:52:26.267Z,34.40
2018-08-17T16:54:54.177Z,34.20
2018-08-17T16:57:21.695Z,34.20
2018-08-17T16:59:49.348Z,34.10
2018-08-17T17:02:16.816Z,33.90
2018-08-17T17:04:44.410Z,33.80
2018-08-17T17:07:11.959Z,33.80
2018-08-17T17:09:39.499Z,33.60
2018-08-17T17:12:15.860Z,33.10
2018-08-17T17:14:44.093Z,33.50
2018-08-17T17:17:19.262Z,33.40
2018-08-17T17:19:46.728Z,33.30
2018-08-17T17:22:14.300Z,33.20
2018-08-17T17:24:41.865Z,33.10
2018-08-17T17:27:09.170Z,33.00
2018-08-17T17:29:37.288Z,32.90
2018-08-17T17:32:05.431Z,32.30
2018-08-17T17:34:32.991Z,32.70
2018-08-17T17:37:00.600Z,32.70
2018-08-17T17:39:28.133Z,32.60
2018-08-17T17:41:55.653Z,32.40
2018-08-17T17:44:23.174Z,32.50
2018-08-17T17:46:50.745Z,32.40
2018-08-17T17:49:18.327Z,32.30
2018-08-17T17:51:46.832Z,32.20
2018-08-17T17:54:20.080Z,32.10
2018-08-17T17:56:56.054Z,32.00
2018-08-17T17:59:23.585Z,29.80
2018-08-17T18:01:51.094Z,31.90
2018-08-17T18:04:18.598Z,31.80
2018-08-17T18:06:46.141Z,31.70
2018-08-17T18:09:13.701Z,31.80
2018-08-17T18:11:41.221Z,31.50
2018-08-17T18:14:08.746Z,30.70
2018-08-17T18:16:36.237Z,31.40
2018-08-17T18:19:03.838Z,31.40
2018-08-17T18:21:32.665Z,31.10
2018-08-17T18:24:05.737Z,31.00
2018-08-17T18:26:34.086Z,31.20
2018-08-17T18:29:01.656Z,31.10
2018-08-17T18:31:29.148Z,31.00
2018-08-17T18:33:56.824Z,30.90
2018-08-17T18:36:24.348Z,30.90
2018-08-17T18:38:51.982Z,29.80
2018-08-17T18:41:19.510Z,30.70
2018-08-17T18:43:47.407Z,30.60
2018-08-17T18:46:15.135Z,30.60
2018-08-17T18:48:42.616Z,30.50
2018-08-17T18:51:10.571Z,30.50
2018-08-17T18:53:38.185Z,30.40
2018-08-17T18:56:05.770Z,30.30
2018-08-17T18:58:33.409Z,30.40
2018-08-17T19:01:00.972Z,30.30
2018-08-17T19:03:28.590Z,30.20
2018-08-17T19:05:56.106Z,30.20
2018-08-17T19:08:23.671Z,30.20
2018-08-17T19:10:51.256Z,30.10
2018-08-17T19:13:18.825Z,30.00
2018-08-17T19:15:50.952Z,30.00
2018-08-17T19:18:18.514Z,29.90
2018-08-17T19:20:46.073Z,29.80
2018-08-17T19:23:13.721Z,29.80
2018-08-17T19:25:41.363Z,29.90
2018-08-17T19:28:08.889Z,29.70
2018-08-17T19:30:38.526Z,29.60
2018-08-17T19:33:08.308Z,29.70
2018-08-17T19:35:35.887Z,29.60
2018-08-17T19:38:03.511Z,29.20
2018-08-17T19:40:31.065Z,29.50
2018-08-17T19:42:58.611Z,27.90
2018-08-17T19:45:26.232Z,29.50
2018-08-17T19:47:53.817Z,29.30
2018-08-17T19:50:21.507Z,29.20
2018-08-17T19:52:49.081Z,29.20
2018-08-17T19:55:16.788Z,29.30
2018-08-17T19:57:44.380Z,29.20
2018-08-17T20:00:12.729Z,29.20
2018-08-17T20:02:40.463Z,29.20
2018-08-17T20:05:08.293Z,29.10
2018-08-17T20:07:36.295Z,29.70
2018-08-17T20:10:04.161Z,29.10
2018-08-17T20:12:31.904Z,29.00
2018-08-17T20:14:59.548Z,28.60
2018-08-17T20:17:27.061Z,28.80
2018-08-17T20:19:54.744Z,28.90
2018-08-17T20:22:23.428Z,28.90
2018-08-17T20:24:51.713Z,28.90
2018-08-17T20:27:19.922Z,28.70
2018-08-17T20:29:47.694Z,28.60
2018-08-17T20:32:15.479Z,28.80
2018-08-17T20:34:45.996Z,28.70
2018-08-17T20:37:14.733Z,28.60
2018-08-17T20:39:43.454Z,28.60
2018-08-17T20:42:11.494Z,28.50
2018-08-17T20:44:39.677Z,28.40
2018-08-17T20:47:08.170Z,28.40
2018-08-17T20:49:35.786Z,28.50
2018-08-17T20:52:04.085Z,28.40
2018-08-17T20:54:32.208Z,28.40
2018-08-17T20:57:00.436Z,27.20
2018-08-17T20:59:28.112Z,26.00
2018-08-17T21:01:55.850Z,28.30
2018-08-17T21:04:23.477Z,28.20
2018-08-17T21:06:51.028Z,28.20
2018-08-17T21:09:18.904Z,28.30
2018-08-17T21:11:46.414Z,28.20
2018-08-17T21:14:13.944Z,26.20
2018-08-17T21:16:41.566Z,28.00
2018-08-17T21:19:09.144Z,27.90
2018-08-17T21:21:36.728Z,28.00
2018-08-17T21:24:04.302Z,27.10
2018-08-17T21:26:33.098Z,25.30
2018-08-17T21:29:01.814Z,26.80
2018-08-17T21:31:29.390Z,27.90
2018-08-17T21:33:56.995Z,27.80
2018-08-17T21:36:24.544Z,27.80
2018-08-17T21:39:09.505Z,27.70
2018-08-17T21:41:37.783Z,27.60
2018-08-17T21:44:07.309Z,26.30
2018-08-17T21:46:35.767Z,27.60
2018-08-17T21:49:03.398Z,27.60
2018-08-17T21:51:33.120Z,27.50
2018-08-17T21:54:01.175Z,27.50
2018-08-17T21:56:28.873Z,27.50
2018-08-17T21:58:56.581Z,27.40
2018-08-17T22:01:24.150Z,25.60
2018-08-17T22:03:51.706Z,27.40
2018-08-17T22:06:19.344Z,27.30
2018-08-17T22:08:47.001Z,27.40
2018-08-17T22:11:23.733Z,27.20
2018-08-17T22:13:51.273Z,27.20
2018-08-17T22:16:18.897Z,24.30
2018-08-17T22:18:46.696Z,27.20
2018-08-17T22:21:14.155Z,27.30
2018-08-17T22:23:41.766Z,27.20
2018-08-17T22:26:09.491Z,27.10
2018-08-17T22:28:37.125Z,27.10
2018-08-17T22:31:04.928Z,27.10
2018-08-17T22:33:32.694Z,27.20
2018-08-17T22:36:00.409Z,27.10
2018-08-17T22:38:31.455Z,26.90
2018-08-17T22:40:59.096Z,27.10
2018-08-17T22:43:26.583Z,27.10
2018-08-17T22:45:54.095Z,27.10
2018-08-17T22:48:21.784Z,25.20
2018-08-17T22:50:49.280Z,27.10
2018-08-17T22:53:16.840Z,26.90
2018-08-17T22:55:44.437Z,27.00
2018-08-17T22:58:12.731Z,27.00
2018-08-17T23:00:40.369Z,27.00
2018-08-17T23:03:07.990Z,27.00
2018-08-17T23:05:35.815Z,26.20
2018-08-17T23:08:03.587Z,26.90
2018-08-17T23:10:31.267Z,27.00
2018-08-17T23:12:58.823Z,26.20
2018-08-17T23:15:26.502Z,26.80
2018-08-17T23:17:56.214Z,26.90
2018-08-17T23:20:29.500Z,26.90
2018-08-17T23:22:58.284Z,26.80
2018-08-17T23:25:25.854Z,26.90
2018-08-17T23:27:53.709Z,26.80
2018-08-17T23:30:21.229Z,26.80
2018-08-17T23:32:48.882Z,26.60
2018-08-17T23:35:23.207Z,25.80
2018-08-17T23:37:50.774Z,26.60
2018-08-17T23:40:18.364Z,26.60
2018-08-17T23:42:45.935Z,26.60
2018-08-17T23:45:15.888Z,26.60
2018-08-17T23:47:43.518Z,26.60
2018-08-17T23:50:12.602Z,26.60
2018-08-17T23:52:40.082Z,26.50
2018-08-17T23:55:09.696Z,26.40
2018-08-17T23:57:37.227Z,26.50
